sensor_id;sensor_type;location;lat;lon;timestamp;pressure;altitude;pressure_sealevel;temperature;humidity
49104;BME280;34915;52.926;11.116;2022-08-20T00:00:43;101172.72;;;19.06;100.00
49104;BME280;34915;52.926;11.116;2022-08-20T00:03:17;101185.16;;;19.07;100.00
49104;BME280;34915;52.926;11.116;2022-08-20T00:05:46;101186.13;;;19.06;100.00
49104;BME280;34915;52.926;11.116;2022-08-20T00:08:15;101184.53;;;19.13;100.00
49104;BME280;34915;52.926;11.116;2022-08-20T00:10:44;101182.16;;;19.10;100.00
49104;BME280;34915;52.926;11.116;2022-08-20T00:13:13;101190.81;;;19.04;100.00
49104;BME280;34915;52.926;11.116;2022-08-20T00:15:39;101192.81;;;19.02;100.00
49104;BME280;34915;52.926;11.116;2022-08-20T00:18:06;101194.78;;;19.00;100.00
49104;BME280;34915;52.926;11.116;2022-08-20T00:20:37;101195.06;;;18.97;100.00
49104;BME280;34915;52.926;11.116;2022-08-20T00:23:04;101202.44;;;18.95;100.00
49104;BME280;34915;52.926;11.116;2022-08-20T00:25:31;101208.91;;;19.02;100.00
49104;BME280;34915;52.926;11.116;2022-08-20T00:27:57;101204.97;;;18.97;100.00
49104;BME280;34915;52.926;11.116;2022-08-20T00:30:25;101208.09;;;18.92;100.00
49104;BME280;34915;52.926;11.116;2022-08-20T00:32:56;101215.47;;;18.90;100.00
49104;BME280;34915;52.926;11.116;2022-08-20T00:35:26;101212.41;;;18.85;100.00
49104;BME280;34915;52.926;11.116;2022-08-20T00:37:52;101205.31;;;18.84;100.00
49104;BME280;34915;52.926;11.116;2022-08-20T00:40:23;101203.63;;;18.83;100.00
49104;BME280;34915;52.926;11.116;2022-08-20T00:42:53;101195.47;;;18.76;100.00
49104;BME280;34915;52.926;11.116;2022-08-20T00:45:22;101199.16;;;18.75;100.00
49104;BME280;34915;52.926;11.116;2022-08-20T00:47:49;101203.13;;;18.71;100.00
49104;BME280;34915;52.926;11.116;2022-08-20T00:50:20;101205.13;;;18.69;100.00
49104;BME280;34915;52.926;11.116;2022-08-20T00:52:48;101214.44;;;18.65;100.00
49104;BME280;34915;52.926;11.116;2022-08-20T00:55:16;101207.00;;;18.59;100.00
49104;BME280;34915;52.926;11.116;2022-08-20T00:57:48;101219.81;;;18.65;100.00
49104;BME280;34915;52.926;11.116;2022-08-20T01:00:39;101223.22;;;18.67;100.00
49104;BME280;34915;52.926;11.116;2022-08-20T01:03:08;101223.22;;;18.67;100.00
49104;BME280;34915;52.926;11.116;2022-08-20T01:05:38;101221.72;;;18.81;100.00
49104;BME280;34915;52.926;11.116;2022-08-20T01:08:06;101216.38;;;18.81;100.00
49104;BME280;34915;52.926;11.116;2022-08-20T01:10:37;101221.97;;;18.88;100.00
49104;BME280;34915;52.926;11.116;2022-08-20T01:13:06;101213.47;;;18.92;100.00
49104;BME280;34915;52.926;11.116;2022-08-20T01:15:36;101215.47;;;18.90;100.00
49104;BME280;34915;52.926;11.116;2022-08-20T01:18:05;101210.69;;;18.84;100.00
49104;BME280;34915;52.926;11.116;2022-08-20T01:20:35;101211.69;;;18.83;100.00
49104;BME280;34915;52.926;11.116;2022-08-20T01:28:51;101207.81;;;18.95;100.00
49104;BME280;34915;52.926;11.116;2022-08-20T01:31:28;101207.53;;;18.98;100.00
49104;BME280;34915;52.926;11.116;2022-08-20T01:33:56;101199.66;;;18.87;100.00
49104;BME280;34915;52.926;11.116;2022-08-20T01:36:48;101182.75;;;18.77;100.00
49104;BME280;34915;52.926;11.116;2022-08-20T01:39:19;101197.66;;;18.89;100.00
49104;BME280;34915;52.926;11.116;2022-08-20T01:44:26;101196.59;;;18.82;100.00
49104;BME280;34915;52.926;11.116;2022-08-20T01:46:53;101204.22;;;18.77;100.00
49104;BME280;34915;52.926;11.116;2022-08-20T01:49:23;101207.63;;;18.79;100.00
49104;BME280;34915;52.926;11.116;2022-08-20T01:51:52;101203.63;;;18.83;100.00
49104;BME280;34915;52.926;11.116;2022-08-20T01:54:18;101202.03;;;18.90;100.00
49104;BME280;34915;52.926;11.116;2022-08-20T01:57:00;101206.00;;;18.86;100.00
49104;BME280;34915;52.926;11.116;2022-08-20T01:59:27;101211.00;;;18.81;100.00
49104;BME280;34915;52.926;11.116;2022-08-20T02:01:52;101220.03;;;18.80;100.00
49104;BME280;34915;52.926;11.116;2022-08-20T02:04:19;101228.09;;;18.80;100.00
49104;BME280;34915;52.926;11.116;2022-08-20T02:06:52;101230.78;;;18.80;100.00
49104;BME280;34915;52.926;11.116;2022-08-20T02:09:19;101223.72;;;18.79;100.00
49104;BME280;34915;52.926;11.116;2022-08-20T02:11:45;101220.75;;;18.82;100.00
49104;BME280;34915;52.926;11.116;2022-08-20T02:14:12;101213.00;;;18.79;100.00
49104;BME280;34915;52.926;11.116;2022-08-20T02:16:41;101218.66;;;18.77;100.00
49104;BME280;34915;52.926;11.116;2022-08-20T02:19:21;101209.66;;;18.68;100.00
49104;BME280;34915;52.926;11.116;2022-08-20T02:21:50;101223.13;;;18.85;100.00
49104;BME280;34915;52.926;11.116;2022-08-20T02:24:17;101219.44;;;18.86;100.00
49104;BME280;34915;52.926;11.116;2022-08-20T02:26:43;101215.75;;;18.87;100.00
49104;BME280;34915;52.926;11.116;2022-08-20T02:29:11;101220.75;;;18.82;100.00
49104;BME280;34915;52.926;11.116;2022-08-20T02:31:39;101226.81;;;18.84;100.00
49104;BME280;34915;52.926;11.116;2022-08-20T02:34:07;101232.19;;;18.84;100.00
49104;BME280;34915;52.926;11.116;2022-08-20T02:36:37;101215.38;;;18.82;100.00
49104;BME280;34915;52.926;11.116;2022-08-20T02:39:06;101232.19;;;18.84;100.00
49104;BME280;34915;52.926;11.116;2022-08-20T02:41:34;101224.13;;;18.84;100.00
49104;BME280;34915;52.926;11.116;2022-08-20T02:44:00;101217.34;;;18.80;100.00
49104;BME280;34915;52.926;11.116;2022-08-20T02:46:26;101212.69;;;18.82;100.00
49104;BME280;34915;52.926;11.116;2022-08-20T02:48:53;101216.66;;;18.78;100.00
49104;BME280;34915;52.926;11.116;2022-08-20T02:51:19;101209.88;;;18.75;100.00
49104;BME280;34915;52.926;11.116;2022-08-20T02:53:45;101212.88;;;18.72;100.00
49104;BME280;34915;52.926;11.116;2022-08-20T02:56:10;101225.63;;;18.70;100.00
49104;BME280;34915;52.926;11.116;2022-08-20T02:58:37;101220.13;;;18.62;100.00
49104;BME280;34915;52.926;11.116;2022-08-20T03:01:07;101218.19;;;18.54;100.00
49104;BME280;34915;52.926;11.116;2022-08-20T03:03:33;101228.03;;;18.63;100.00
49104;BME280;34915;52.926;11.116;2022-08-20T03:05:59;101223.22;;;18.67;100.00
49104;BME280;34915;52.926;11.116;2022-08-20T03:08:26;101228.88;;;18.64;100.00
49104;BME280;34915;52.926;11.116;2022-08-20T03:10:54;101228.88;;;18.64;100.00
49104;BME280;34915;52.926;11.116;2022-08-20T03:13:21;101232.56;;;18.63;100.00
49104;BME280;34915;52.926;11.116;2022-08-20T03:15:55;101231.97;;;18.69;100.00
49104;BME280;34915;52.926;11.116;2022-08-20T03:18:24;101231.66;;;18.72;100.00
49104;BME280;34915;52.926;11.116;2022-08-20T03:20:53;101227.19;;;18.63;100.00
49104;BME280;34915;52.926;11.116;2022-08-20T03:23:19;101228.06;;;18.54;100.00
49104;BME280;34915;52.926;11.116;2022-08-20T03:25:46;101236.22;;;18.62;100.00
49104;BME280;34915;52.926;11.116;2022-08-20T03:28:12;101230.06;;;18.52;100.00
49104;BME280;34915;52.926;11.116;2022-08-20T03:30:39;101242.78;;;18.50;100.00
49104;BME280;34915;52.926;11.116;2022-08-20T03:33:05;101246.88;;;18.54;100.00
49104;BME280;34915;52.926;11.116;2022-08-20T03:35:31;101256.31;;;18.58;100.00
49104;BME280;34915;52.926;11.116;2022-08-20T03:37:57;101240.22;;;18.48;100.00
49104;BME280;34915;52.926;11.116;2022-08-20T03:40:28;101249.53;;;18.54;100.00
49104;BME280;34915;52.926;11.116;2022-08-20T03:42:54;101253.22;;;18.53;100.00
49104;BME280;34915;52.926;11.116;2022-08-20T03:45:22;101254.34;;;18.50;100.00
49104;BME280;34915;52.926;11.116;2022-08-20T03:47:49;101238.00;;;18.44;100.00
49104;BME280;34915;52.926;11.116;2022-08-20T03:50:17;101253.81;;;18.47;100.00
49104;BME280;34915;52.926;11.116;2022-08-20T03:52:43;101260.28;;;18.44;100.00
49104;BME280;34915;52.926;11.116;2022-08-20T03:55:09;101252.09;;;18.46;100.00
49104;BME280;34915;52.926;11.116;2022-08-20T03:57:35;101248.72;;;18.44;100.00
49104;BME280;34915;52.926;11.116;2022-08-20T04:00:03;101249.84;;;18.51;100.00
49104;BME280;34915;52.926;11.116;2022-08-20T04:02:29;101241.66;;;18.43;100.00
49104;BME280;34915;52.926;11.116;2022-08-20T04:04:55;101249.84;;;18.51;100.00
49104;BME280;34915;52.926;11.116;2022-08-20T04:07:23;101248.44;;;18.47;100.00
49104;BME280;34915;52.926;11.116;2022-08-20T04:09:54;101252.09;;;18.46;100.00
49104;BME280;34915;52.926;11.116;2022-08-20T04:12:22;101253.41;;;18.42;100.00
49104;BME280;34915;52.926;11.116;2022-08-20T04:14:48;101257.47;;;18.46;100.00
49104;BME280;34915;52.926;11.116;2022-08-20T04:17:16;101254.91;;;18.54;100.00
49104;BME280;34915;52.926;11.116;2022-08-20T04:19:42;101246.72;;;18.46;100.00
49104;BME280;34915;52.926;11.116;2022-08-20T04:22:08;101260.16;;;18.46;100.00
49104;BME280;34915;52.926;11.116;2022-08-20T04:24:35;101256.69;;;18.36;100.00
49104;BME280;34915;52.926;11.116;2022-08-20T04:27:02;101255.84;;;18.26;100.00
49104;BME280;34915;52.926;11.116;2022-08-20T04:29:30;101267.41;;;18.36;100.00
49104;BME280;34915;52.926;11.116;2022-08-20T04:31:56;101255.56;;;18.29;100.00
49104;BME280;34915;52.926;11.116;2022-08-20T04:34:21;101265.41;;;18.38;100.00
49104;BME280;34915;52.926;11.116;2022-08-20T04:36:47;101269.38;;;18.34;100.00
49104;BME280;34915;52.926;11.116;2022-08-20T04:39:14;101264.00;;;18.34;100.00
49104;BME280;34915;52.926;11.116;2022-08-20T04:41:41;101265.38;;;18.47;100.00
49104;BME280;34915;52.926;11.116;2022-08-20T04:44:08;101282.34;;;18.48;100.00
49104;BME280;34915;52.926;11.116;2022-08-20T04:46:36;101278.53;;;18.41;100.00
49104;BME280;34915;52.926;11.116;2022-08-20T04:49:02;101274.72;;;18.34;100.00
49104;BME280;34915;52.926;11.116;2022-08-20T04:51:29;101270.66;;;18.30;100.00
49104;BME280;34915;52.926;11.116;2022-08-20T04:53:55;101274.44;;;18.37;100.00
49104;BME280;34915;52.926;11.116;2022-08-20T04:56:26;101276.44;;;18.35;100.00
49104;BME280;34915;52.926;11.116;2022-08-20T04:58:55;101264.28;;;18.31;100.00
49104;BME280;34915;52.926;11.116;2022-08-20T05:01:21;101266.28;;;18.29;100.00
49104;BME280;34915;52.926;11.116;2022-08-20T05:03:48;101262.03;;;18.36;100.00
49104;BME280;34915;52.926;11.116;2022-08-20T05:06:14;101263.84;;;18.45;100.00
49104;BME280;34915;52.926;11.116;2022-08-20T05:08:42;101259.69;;;18.60;100.00
49104;BME280;34915;52.926;11.116;2022-08-20T05:11:08;101269.53;;;18.69;100.00
49104;BME280;34915;52.926;11.116;2022-08-20T05:13:34;101265.88;;;18.70;100.00
49104;BME280;34915;52.926;11.116;2022-08-20T05:16:00;101270.06;;;18.81;100.00
49104;BME280;34915;52.926;11.116;2022-08-20T05:18:26;101268.66;;;18.77;100.00
49104;BME280;34915;52.926;11.116;2022-08-20T05:20:52;101274.59;;;18.81;100.00
49104;BME280;34915;52.926;11.116;2022-08-20T05:23:19;101274.53;;;18.90;100.00
49104;BME280;34915;52.926;11.116;2022-08-20T05:25:47;101269.16;;;18.90;100.00
49104;BME280;34915;52.926;11.116;2022-08-20T05:28:21;101273.94;;;18.96;100.00
49104;BME280;34915;52.926;11.116;2022-08-20T05:30:49;101268.00;;;19.02;100.00
49104;BME280;34915;52.926;11.116;2022-08-20T05:33:19;101265.13;;;19.13;100.00
49104;BME280;34915;52.926;11.116;2022-08-20T05:35:46;101272.91;;;19.16;100.00
49104;BME280;34915;52.926;11.116;2022-08-20T05:38:14;101267.09;;;19.11;100.00
49104;BME280;34915;52.926;11.116;2022-08-20T05:40:41;101272.97;;;19.24;100.00
49104;BME280;34915;52.926;11.116;2022-08-20T05:43:08;101266.31;;;19.28;100.00
49104;BME280;34915;52.926;11.116;2022-08-20T05:45:36;101272.06;;;19.33;100.00
49104;BME280;34915;52.926;11.116;2022-08-20T05:48:10;101275.66;;;19.51;100.00
49104;BME280;34915;52.926;11.116;2022-08-20T05:50:37;101279.53;;;19.56;100.00
49104;BME280;34915;52.926;11.116;2022-08-20T05:53:03;101274.25;;;19.47;100.00
49104;BME280;34915;52.926;11.116;2022-08-20T05:55:29;101267.19;;;19.46;100.00
49104;BME280;34915;52.926;11.116;2022-08-20T05:58:02;101278.72;;;19.56;100.00
49104;BME280;34915;52.926;11.116;2022-08-20T06:00:28;101281.50;;;19.64;100.00
49104;BME280;34915;52.926;11.116;2022-08-20T06:02:55;101292.94;;;19.66;100.00
49104;BME280;34915;52.926;11.116;2022-08-20T06:05:39;101284.09;;;19.56;100.00
49104;BME280;34915;52.926;11.116;2022-08-20T06:08:06;101301.31;;;19.63;100.00
49104;BME280;34915;52.926;11.116;2022-08-20T06:10:32;101298.69;;;19.71;100.00
49104;BME280;34915;52.926;11.116;2022-08-20T06:12:57;101300.47;;;19.79;100.00
49104;BME280;34915;52.926;11.116;2022-08-20T06:15:24;101309.91;;;19.83;99.75
49104;BME280;34915;52.926;11.116;2022-08-20T06:17:50;101302.84;;;19.82;97.50
49104;BME280;34915;52.926;11.116;2022-08-20T06:20:15;101299.47;;;19.80;98.47
49104;BME280;34915;52.926;11.116;2022-08-20T06:22:41;101301.16;;;19.81;98.15
49104;BME280;34915;52.926;11.116;2022-08-20T06:25:07;101302.84;;;19.82;97.51
49104;BME280;34915;52.926;11.116;2022-08-20T06:27:37;101307.94;;;19.85;97.94
49104;BME280;34915;52.926;11.116;2022-08-20T06:30:03;101311.63;;;19.84;97.71
49104;BME280;34915;52.926;11.116;2022-08-20T06:32:29;101315.28;;;19.83;98.32
49104;BME280;34915;52.926;11.116;2022-08-20T06:34:55;101315.91;;;19.77;98.27
49104;BME280;34915;52.926;11.116;2022-08-20T06:37:24;101322.13;;;19.78;99.07
49104;BME280;34915;52.926;11.116;2022-08-20T06:39:50;101316.41;;;19.90;96.14
49104;BME280;34915;52.926;11.116;2022-08-20T06:42:17;101316.56;;;19.89;96.75
49104;BME280;34915;52.926;11.116;2022-08-20T06:44:43;101321.47;;;19.93;97.29
49104;BME280;34915;52.926;11.116;2022-08-20T06:47:16;101321.47;;;19.93;96.13
49104;BME280;34915;52.926;11.116;2022-08-20T06:49:42;101329.56;;;19.93;94.55
49104;BME280;34915;52.926;11.116;2022-08-20T06:52:08;101328.88;;;19.91;95.33
49104;BME280;34915;52.926;11.116;2022-08-20T06:54:34;101321.38;;;19.85;96.26
49104;BME280;34915;52.926;11.116;2022-08-20T06:57:01;101339.31;;;19.94;96.06
49104;BME280;34915;52.926;11.116;2022-08-20T06:59:27;101341.31;;;19.92;96.89
49104;BME280;34915;52.926;11.116;2022-08-20T07:01:52;101335.63;;;19.95;96.51
49104;BME280;34915;52.926;11.116;2022-08-20T07:04:24;101341.78;;;20.05;95.04
49104;BME280;34915;52.926;11.116;2022-08-20T07:06:52;101334.63;;;19.96;95.81
49104;BME280;34915;52.926;11.116;2022-08-20T07:09:19;101331.94;;;19.96;95.73
49104;BME280;34915;52.926;11.116;2022-08-20T07:11:49;101344.47;;;20.05;95.72
49104;BME280;34915;52.926;11.116;2022-08-20T07:14:15;101347.16;;;20.05;96.04
49104;BME280;34915;52.926;11.116;2022-08-20T07:16:41;101345.16;;;20.07;97.16
49104;BME280;34915;52.926;11.116;2022-08-20T07:19:08;101331.63;;;19.99;98.13
49104;BME280;34915;52.926;11.116;2022-08-20T07:21:34;101338.72;;;20.00;98.96
49104;BME280;34915;52.926;11.116;2022-08-20T07:23:59;101342.06;;;20.02;97.59
49104;BME280;34915;52.926;11.116;2022-08-20T07:26:25;101342.84;;;20.12;97.54
49104;BME280;34915;52.926;11.116;2022-08-20T07:28:52;101344.69;;;20.29;96.28
49104;BME280;34915;52.926;11.116;2022-08-20T07:31:19;101342.22;;;20.18;97.76
49104;BME280;34915;52.926;11.116;2022-08-20T07:34:03;101346.50;;;20.46;96.51
49104;BME280;34915;52.926;11.116;2022-08-20T07:36:29;101340.16;;;20.55;95.75
49104;BME280;34915;52.926;11.116;2022-08-20T07:38:55;101326.66;;;20.47;96.33
49104;BME280;34915;52.926;11.116;2022-08-20T07:41:21;101337.94;;;20.50;96.55
49104;BME280;34915;52.926;11.116;2022-08-20T07:43:47;101342.53;;;20.75;96.31
49104;BME280;34915;52.926;11.116;2022-08-20T07:46:15;101348.16;;;20.81;95.85
49104;BME280;34915;52.926;11.116;2022-08-20T07:48:44;101351.53;;;20.83;95.49
49104;BME280;34915;52.926;11.116;2022-08-20T07:51:13;101346.09;;;20.76;96.72
49104;BME280;34915;52.926;11.116;2022-08-20T07:53:41;101360.91;;;20.79;96.72
49104;BME280;34915;52.926;11.116;2022-08-20T07:56:10;101349.94;;;20.73;98.19
49104;BME280;34915;52.926;11.116;2022-08-20T07:58:38;101360.16;;;20.70;98.40
49104;BME280;34915;52.926;11.116;2022-08-20T08:01:06;101360.75;;;20.64;98.92
49104;BME280;34915;52.926;11.116;2022-08-20T08:03:32;101361.06;;;20.61;100.00
49104;BME280;34915;52.926;11.116;2022-08-20T08:05:58;101367.53;;;20.68;100.00
49104;BME280;34915;52.926;11.116;2022-08-20T08:08:26;101365.28;;;20.73;99.31
49104;BME280;34915;52.926;11.116;2022-08-20T08:10:57;101364.94;;;20.76;97.83
49104;BME280;34915;52.926;11.116;2022-08-20T08:13:24;101360.28;;;20.85;98.96
49104;BME280;34915;52.926;11.116;2022-08-20T08:15:53;101365.75;;;21.01;97.24
49104;BME280;34915;52.926;11.116;2022-08-20T08:18:25;101353.31;;;21.00;94.54
49104;BME280;34915;52.926;11.116;2022-08-20T08:20:53;101362.16;;;21.18;94.45
49104;BME280;34915;52.926;11.116;2022-08-20T08:23:21;101361.53;;;21.24;93.24
49104;BME280;34915;52.926;11.116;2022-08-20T08:25:47;101363.22;;;21.25;92.78
49104;BME280;34915;52.926;11.116;2022-08-20T08:28:13;101368.47;;;21.34;92.77
49104;BME280;34915;52.926;11.116;2022-08-20T08:30:40;101367.97;;;21.31;92.14
49104;BME280;34915;52.926;11.116;2022-08-20T08:33:07;101364.63;;;21.37;92.30
49104;BME280;34915;52.926;11.116;2022-08-20T08:35:52;101366.03;;;21.49;91.76
49104;BME280;34915;52.926;11.116;2022-08-20T08:38:19;101357.34;;;21.63;91.34
49104;BME280;34915;52.926;11.116;2022-08-20T08:40:48;101373.19;;;21.66;92.88
49104;BME280;34915;52.926;11.116;2022-08-20T08:43:16;101366.66;;;21.84;89.89
49104;BME280;34915;52.926;11.116;2022-08-20T08:45:46;101375.47;;;21.94;88.02
49104;BME280;34915;52.926;11.116;2022-08-20T08:48:18;101370.56;;;21.89;88.96
49104;BME280;34915;52.926;11.116;2022-08-20T08:50:49;101383.72;;;21.92;89.44
49104;BME280;34915;52.926;11.116;2022-08-20T08:53:25;101367.53;;;21.84;87.63
49104;BME280;34915;52.926;11.116;2022-08-20T08:55:53;101367.53;;;21.84;89.27
49104;BME280;34915;52.926;11.116;2022-08-20T08:58:18;101370.88;;;21.94;90.42
49104;BME280;34915;52.926;11.116;2022-08-20T09:00:44;101378.53;;;22.15;88.10
49104;BME280;34915;52.926;11.116;2022-08-20T09:03:27;101375.38;;;22.43;85.49
49104;BME280;34915;52.926;11.116;2022-08-20T09:05:57;101362.88;;;22.58;84.74
49104;BME280;34915;52.926;11.116;2022-08-20T09:08:41;101367.28;;;22.51;83.27
49104;BME280;34915;52.926;11.116;2022-08-20T09:11:08;101377.75;;;22.46;86.12
49104;BME280;34915;52.926;11.116;2022-08-20T09:13:34;101362.72;;;22.51;85.88
49104;BME280;34915;52.926;11.116;2022-08-20T09:16:00;101379.78;;;22.68;84.02
49104;BME280;34915;52.926;11.116;2022-08-20T09:18:26;101374.38;;;22.52;85.76
49104;BME280;34915;52.926;11.116;2022-08-20T09:20:51;101377.41;;;22.57;84.32
49104;BME280;34915;52.926;11.116;2022-08-20T09:23:17;101379.09;;;22.58;83.87
49104;BME280;34915;52.926;11.116;2022-08-20T09:25:43;101392.28;;;22.53;85.34
49104;BME280;34915;52.926;11.116;2022-08-20T09:28:08;101387.03;;;22.59;83.93
49104;BME280;34915;52.926;11.116;2022-08-20T09:30:34;101387.84;;;22.76;81.25
49104;BME280;34915;52.926;11.116;2022-08-20T09:33:01;101391.06;;;22.71;81.73
49104;BME280;34915;52.926;11.116;2022-08-20T09:35:29;101386.69;;;22.62;83.17
49104;BME280;34915;52.926;11.116;2022-08-20T09:37:54;101391.75;;;22.65;82.32
49104;BME280;34915;52.926;11.116;2022-08-20T09:40:20;101393.25;;;22.76;83.19
49104;BME280;34915;52.926;11.116;2022-08-20T09:42:46;101382.97;;;22.79;81.99
49104;BME280;34915;52.926;11.116;2022-08-20T09:45:13;101388.53;;;22.85;83.29
49104;BME280;34915;52.926;11.116;2022-08-20T09:47:39;101381.06;;;23.11;81.56
49104;BME280;34915;52.926;11.116;2022-08-20T09:50:06;101375.66;;;23.03;82.14
49104;BME280;34915;52.926;11.116;2022-08-20T09:52:40;101374.31;;;23.15;79.64
49104;BME280;34915;52.926;11.116;2022-08-20T09:57:48;101380.03;;;23.20;80.61
49104;BME280;34915;52.926;11.116;2022-08-20T10:00:15;101376.59;;;23.42;78.39
49104;BME280;34915;52.926;11.116;2022-08-20T10:02:41;101371.94;;;23.20;81.09
49104;BME280;34915;52.926;11.116;2022-08-20T10:05:07;101381.25;;;23.10;81.19
49104;BME280;34915;52.926;11.116;2022-08-20T10:07:34;101378.03;;;23.06;80.00
49104;BME280;34915;52.926;11.116;2022-08-20T10:10:00;101384.63;;;23.12;79.95
49104;BME280;34915;52.926;11.116;2022-08-20T10:12:26;101383.47;;;22.98;80.76
49104;BME280;34915;52.926;11.116;2022-08-20T10:14:51;101383.78;;;23.11;81.35
49104;BME280;34915;52.926;11.116;2022-08-20T10:17:17;101380.75;;;23.06;81.54
49104;BME280;34915;52.926;11.116;2022-08-20T10:19:43;101380.75;;;23.06;81.60
49104;BME280;34915;52.926;11.116;2022-08-20T10:22:08;101377.63;;;23.25;81.83
49104;BME280;34915;52.926;11.116;2022-08-20T10:24:34;101376.63;;;23.26;82.22
49104;BME280;34915;52.926;11.116;2022-08-20T10:27:00;101382.69;;;23.28;82.53
49104;BME280;34915;52.926;11.116;2022-08-20T10:29:27;101395.22;;;23.37;80.70
49104;BME280;34915;52.926;11.116;2022-08-20T10:31:54;101392.81;;;23.42;80.12
49104;BME280;34915;52.926;11.116;2022-08-20T10:34:24;101394.56;;;23.27;79.20
49104;BME280;34915;52.926;11.116;2022-08-20T10:36:50;101393.69;;;23.27;80.19
49104;BME280;34915;52.926;11.116;2022-08-20T10:39:16;101390.53;;;23.15;80.79
49104;BME280;34915;52.926;11.116;2022-08-20T10:41:41;101396.28;;;23.04;82.24
49104;BME280;34915;52.926;11.116;2022-08-20T10:44:09;101395.63;;;22.94;82.87
49104;BME280;34915;52.926;11.116;2022-08-20T10:46:35;101397.81;;;22.91;83.73
49104;BME280;34915;52.926;11.116;2022-08-20T10:49:00;101387.81;;;23.23;80.36
49104;BME280;34915;52.926;11.116;2022-08-20T10:51:26;101389.84;;;23.21;78.92
49104;BME280;34915;52.926;11.116;2022-08-20T10:53:52;101397.78;;;23.23;79.10
49104;BME280;34915;52.926;11.116;2022-08-20T10:56:17;101388.84;;;23.14;78.67
49104;BME280;34915;52.926;11.116;2022-08-20T10:58:43;101388.41;;;22.95;77.69
49104;BME280;34915;52.926;11.116;2022-08-20T11:01:08;101382.44;;;22.91;78.76
49104;BME280;34915;52.926;11.116;2022-08-20T11:03:34;101386.13;;;22.90;78.85
49104;BME280;34915;52.926;11.116;2022-08-20T11:06:00;101390.56;;;22.83;81.12
49104;BME280;34915;52.926;11.116;2022-08-20T11:08:26;101394.59;;;22.87;81.51
49104;BME280;34915;52.926;11.116;2022-08-20T11:10:52;101387.69;;;22.85;81.71
49104;BME280;34915;52.926;11.116;2022-08-20T11:13:17;101389.88;;;22.81;83.59
49104;BME280;34915;52.926;11.116;2022-08-20T11:15:44;101392.09;;;22.78;83.39
49104;BME280;34915;52.926;11.116;2022-08-20T11:18:11;101392.75;;;22.72;83.16
49104;BME280;34915;52.926;11.116;2022-08-20T11:20:37;101385.50;;;22.73;80.66
49104;BME280;34915;52.926;11.116;2022-08-20T11:23:03;101395.09;;;22.83;80.05
49104;BME280;34915;52.926;11.116;2022-08-20T11:25:29;101392.25;;;22.77;81.89
49104;BME280;34915;52.926;11.116;2022-08-20T11:27:55;101400.69;;;22.74;83.81
49104;BME280;34915;52.926;11.116;2022-08-20T11:30:24;101410.31;;;22.68;82.79
49104;BME280;34915;52.926;11.116;2022-08-20T11:32:50;101400.69;;;22.89;80.06
49104;BME280;34915;52.926;11.116;2022-08-20T11:35:16;101412.88;;;23.01;80.71
49104;BME280;34915;52.926;11.116;2022-08-20T11:37:43;101413.84;;;22.84;83.05
49104;BME280;34915;52.926;11.116;2022-08-20T11:40:09;101418.28;;;22.46;85.88
49104;BME280;34915;52.926;11.116;2022-08-20T11:42:36;101428.38;;;22.44;87.42
49104;BME280;34915;52.926;11.116;2022-08-20T11:45:03;101434.78;;;22.35;88.49
49104;BME280;34915;52.926;11.116;2022-08-20T11:47:29;101433.09;;;22.26;90.21
49104;BME280;34915;52.926;11.116;2022-08-20T11:49:56;101438.81;;;22.23;90.01
49104;BME280;34915;52.926;11.116;2022-08-20T11:52:22;101440.13;;;22.19;91.09
49104;BME280;34915;52.926;11.116;2022-08-20T11:54:48;101440.94;;;22.12;90.22
49104;BME280;34915;52.926;11.116;2022-08-20T11:57:19;101438.41;;;22.02;90.89
49104;BME280;34915;52.926;11.116;2022-08-20T11:59:51;101438.38;;;21.94;92.05
49104;BME280;34915;52.926;11.116;2022-08-20T12:02:17;101439.69;;;21.82;94.32
49104;BME280;34915;52.926;11.116;2022-08-20T12:04:43;101433.94;;;21.85;95.23
49104;BME280;34915;52.926;11.116;2022-08-20T12:07:11;101441.72;;;21.80;96.45
49104;BME280;34915;52.926;11.116;2022-08-20T12:09:37;101437.31;;;21.79;97.96
49104;BME280;34915;52.926;11.116;2022-08-20T12:12:03;101438.69;;;21.91;98.85
49104;BME280;34915;52.926;11.116;2022-08-20T12:14:29;101440.06;;;21.95;99.85
49104;BME280;34915;52.926;11.116;2022-08-20T12:16:54;101446.50;;;22.10;99.76
49104;BME280;34915;52.926;11.116;2022-08-20T12:19:20;101455.84;;;22.24;96.61
49104;BME280;34915;52.926;11.116;2022-08-20T12:21:45;101451.66;;;22.29;97.62
49104;BME280;34915;52.926;11.116;2022-08-20T12:24:11;101453.28;;;22.06;87.97
49104;BME280;34915;52.926;11.116;2022-08-20T12:26:36;101455.22;;;21.88;86.67
49104;BME280;34915;52.926;11.116;2022-08-20T12:29:02;101470.94;;;21.60;86.94
49104;BME280;34915;52.926;11.116;2022-08-20T12:31:30;101455.50;;;21.44;87.08
49104;BME280;34915;52.926;11.116;2022-08-20T12:33:55;101459.66;;;21.39;87.51
49104;BME280;34915;52.926;11.116;2022-08-20T12:36:21;101463.13;;;21.24;86.85
49104;BME280;34915;52.926;11.116;2022-08-20T12:38:46;101474.22;;;21.21;86.71
49104;BME280;34915;52.926;11.116;2022-08-20T12:41:12;101480.03;;;21.08;87.24
49104;BME280;34915;52.926;11.116;2022-08-20T12:43:38;101470.50;;;20.96;87.05
49104;BME280;34915;52.926;11.116;2022-08-20T12:46:03;101462.97;;;20.82;88.42
49104;BME280;34915;52.926;11.116;2022-08-20T12:48:29;101467.63;;;20.73;91.25